Time;durP1;ratioP1;P1;durP2;ratioP2;P2;SDS_P1;SDS_P2;PMS_P1;PMS_P2;Temp;Humidity;BMP_temperature;BMP_pressure;BME280_temperature;BME280_humidity;BME280_pressure;Samples;Min_cycle;Max_cycle;Signal;HPM_P1;HPM_P2
2023/07/25 00:00:23;;;;;;;;;;;;;;;22.61;27.17;97578.69;4964223;28;1911;-78
2023/07/25 00:02:48;;;;;;;;;;;;;;;22.76;26.98;97556.25;4964798;28;1374;-79
2023/07/25 00:05:14;;;;;;;;;;;;;;;22.47;27.49;97570.69;4965147;28;838;-78
2023/07/25 00:07:39;;;;;;;;;;;;;;;22.74;27.02;97568.06;4965932;28;1286;-78
2023/07/25 00:10:05;;;;;;;;;;;;;;;22.83;26.88;97561.63;4964687;28;807;-78
2023/07/25 00:12:30;;;;;;;;;;;;;;;22.73;26.71;97560.78;4948190;28;979;-78
2023/07/25 00:14:56;;;;;;;;;;;;;;;22.50;27.34;97564.91;4980407;28;1556;-78
2023/07/25 00:17:21;;;;;;;;;;;;;;;22.79;26.75;97558.13;4981131;28;924;-78
2023/07/25 00:19:47;;;;;;;;;;;;;;;22.73;26.78;97560.78;4998067;28;1902;-78
2023/07/25 00:22:12;;;;;;;;;;;;;;;22.92;26.61;97555.25;4949023;28;1218;-78
2023/07/25 00:24:38;;;;;;;;;;;;;;;22.58;27.09;97554.06;4964707;28;1106;-78
2023/07/25 00:27:03;;;;;;;;;;;;;;;22.71;27.04;97551.97;4981210;28;832;-79
2023/07/25 00:29:29;;;;;;;;;;;;;;;22.82;26.66;97540.19;4969261;28;1259;-78
2023/07/25 00:31:54;;;;;;;;;;;;;;;22.55;27.04;97540.84;4945571;28;1140;-77
2023/07/25 00:34:20;;;;;;;;;;;;;;;22.88;26.59;97532.69;4945207;28;862;-78
2023/07/25 00:36:45;;;;;;;;;;;;;;;22.66;26.89;97532.72;4961231;28;950;-78
2023/07/25 00:39:11;;;;;;;;;;;;;;;22.64;27.07;97535.22;4961338;28;1911;-78
2023/07/25 00:41:37;;;;;;;;;;;;;;;22.65;27.06;97542.47;4961435;28;1065;-78
2023/07/25 00:44:02;;;;;;;;;;;;;;;22.69;26.87;97537.47;4955742;28;1339;-78
2023/07/25 00:46:28;;;;;;;;;;;;;;;22.75;26.92;97540.50;4948495;28;1239;-77
2023/07/25 00:48:53;;;;;;;;;;;;;;;22.48;27.18;97532.59;4997363;28;823;-78
2023/07/25 00:51:19;;;;;;;;;;;;;;;22.65;26.72;97548.16;4980230;28;874;-78
2023/07/25 00:53:44;;;;;;;;;;;;;;;22.68;26.66;97541.53;4964449;28;1128;-79
2023/07/25 00:56:10;;;;;;;;;;;;;;;22.76;26.60;97542.84;4960294;28;1319;-78
2023/07/25 00:58:35;;;;;;;;;;;;;;;22.51;27.08;97537.34;4959157;28;1348;-78
2023/07/25 01:01:03;;;;;;;;;;;;;;;22.66;27.05;97529.88;4937101;29;1906;-78
2023/07/25 01:03:29;;;;;;;;;;;;;;;22.62;27.02;97532.06;4937449;29;1121;-78
2023/07/25 01:05:55;;;;;;;;;;;;;;;22.77;26.66;97532.28;4937850;29;1188;-77
2023/07/25 01:08:20;;;;;;;;;;;;;;;22.59;27.15;97530.16;4921544;29;804;-78
2023/07/25 01:10:46;;;;;;;;;;;;;;;22.63;26.95;97533.63;4937884;29;1046;-78
2023/07/25 01:13:12;;;;;;;;;;;;;;;22.78;26.69;97526.16;4921596;29;1488;-79
2023/07/25 01:15:38;;;;;;;;;;;;;;;22.50;27.00;97538.59;4911919;29;1325;-78
2023/07/25 01:18:03;;;;;;;;;;;;;;;22.53;27.04;97546.16;4868663;29;1149;-78
2023/07/25 01:20:29;;;;;;;;;;;;;;;22.53;27.00;97534.81;4868740;29;2088;-78
2023/07/25 01:22:54;;;;;;;;;;;;;;;22.59;27.01;97539.44;4868457;29;1212;-78
2023/07/25 01:25:20;;;;;;;;;;;;;;;22.69;26.85;97543.13;4868526;29;1235;-78
2023/07/25 01:27:46;;;;;;;;;;;;;;;22.73;26.70;97540.94;4897927;29;850;-78
2023/07/25 01:30:11;;;;;;;;;;;;;;;22.71;26.77;97543.47;4907025;29;1352;-78
2023/07/25 01:32:37;;;;;;;;;;;;;;;22.81;26.67;97545.09;4918202;29;907;-78
2023/07/25 01:35:02;;;;;;;;;;;;;;;22.71;26.72;97545.50;4902683;29;828;-78
2023/07/25 01:37:28;;;;;;;;;;;;;;;22.79;26.57;97543.97;4904540;29;889;-79
2023/07/25 01:39:54;;;;;;;;;;;;;;;22.69;26.72;97543.13;4937184;29;1977;-78
2023/07/25 01:42:19;;;;;;;;;;;;;;;22.55;26.93;97538.78;4937484;29;851;-78
2023/07/25 01:44:45;;;;;;;;;;;;;;;22.46;27.16;97541.56;4919741;29;1307;-78
2023/07/25 01:47:10;;;;;;;;;;;;;;;22.71;26.91;97534.16;4900611;29;1529;-79
2023/07/25 01:49:36;;;;;;;;;;;;;;;22.53;27.06;97534.81;4899337;29;1153;-78
2023/07/25 01:52:01;;;;;;;;;;;;;;;22.26;27.42;97533.38;4902276;29;1142;-78
2023/07/25 01:54:27;;;;;;;;;;;;;;;22.62;26.68;97543.41;4921514;29;1154;-78
2023/07/25 01:56:52;;;;;;;;;;;;;;;22.49;27.13;97552.00;4905843;29;1716;-78
2023/07/25 01:59:18;;;;;;;;;;;;;;;22.64;26.72;97555.09;4869461;29;1970;-78
2023/07/25 02:01:43;;;;;;;;;;;;;;;22.72;26.64;97558.41;4887480;29;1357;-78
2023/07/25 02:04:09;;;;;;;;;;;;;;;22.52;27.03;97555.94;4900557;29;947;-78
2023/07/25 02:06:34;;;;;;;;;;;;;;;22.86;26.65;97553.00;4905912;29;1122;-78
2023/07/25 02:09:00;;;;;;;;;;;;;;;22.75;26.65;97546.94;4905654;29;854;-78
2023/07/25 02:11:25;;;;;;;;;;;;;;;22.84;26.62;97555.50;4906315;29;979;-78
2023/07/25 02:13:51;;;;;;;;;;;;;;;22.81;26.27;97550.75;4905487;29;1696;-78
2023/07/25 02:16:16;;;;;;;;;;;;;;;22.57;26.82;97555.34;4905905;29;1113;-78
2023/07/25 02:18:42;;;;;;;;;;;;;;;22.63;26.86;97550.63;4921131;29;1210;-78
2023/07/25 02:21:07;;;;;;;;;;;;;;;22.42;27.16;97551.44;4921501;29;1982;-78
2023/07/25 02:23:33;;;;;;;;;;;;;;;22.50;26.94;97558.44;4920599;29;1354;-78
2023/07/25 02:25:58;;;;;;;;;;;;;;;22.75;26.71;97558.28;4921222;29;931;-78
2023/07/25 02:28:24;;;;;;;;;;;;;;;22.47;27.09;97562.19;4921092;29;1247;-78
2023/07/25 02:30:49;;;;;;;;;;;;;;;22.21;27.45;97559.47;4930581;29;1397;-78
2023/07/25 02:33:15;;;;;;;;;;;;;;;22.39;27.25;97569.41;4924517;29;929;-78
2023/07/25 02:35:40;;;;;;;;;;;;;;;22.66;26.80;97572.41;4940446;29;1076;-78
2023/07/25 02:38:06;;;;;;;;;;;;;;;22.47;27.13;97565.03;4940274;29;894;-78
2023/07/25 02:40:32;;;;;;;;;;;;;;;22.76;26.42;97559.88;4931416;29;1895;-78
2023/07/25 02:42:58;;;;;;;;;;;;;;;22.52;26.85;97551.03;4923785;29;1045;-77
2023/07/25 02:45:23;;;;;;;;;;;;;;;22.75;26.50;97546.94;4924178;29;892;-78
2023/07/25 02:47:49;;;;;;;;;;;;;;;22.60;26.93;97541.03;4905063;29;1139;-78
2023/07/25 02:50:14;;;;;;;;;;;;;;;22.45;26.97;97539.19;4889277;29;1132;-78
2023/07/25 02:52:40;;;;;;;;;;;;;;;22.66;26.74;97544.06;4889731;29;1281;-78
2023/07/25 02:55:06;;;;;;;;;;;;;;;22.86;26.35;97547.31;4932768;29;1733;-78
2023/07/25 02:57:31;;;;;;;;;;;;;;;22.74;26.50;97539.69;4959360;28;968;-78
2023/07/25 02:59:57;;;;;;;;;;;;;;;22.79;26.57;97529.78;4942669;29;1918;-78
2023/07/25 03:02:22;;;;;;;;;;;;;;;22.80;26.47;97532.16;4942938;29;909;-78
2023/07/25 03:04:48;;;;;;;;;;;;;;;22.74;26.40;97531.19;4927114;29;1318;-78
2023/07/25 03:07:13;;;;;;;;;;;;;;;22.72;26.61;97532.91;4938610;29;1614;-78
2023/07/25 03:09:40;;;;;;;;;;;;;;;22.77;26.42;97527.41;4935344;29;1421;-78
2023/07/25 03:12:05;;;;;;;;;;;;;;;22.72;26.84;97530.84;4939580;29;1419;-78
2023/07/25 03:14:31;;;;;;;;;;;;;;;22.65;26.95;97536.81;4939386;29;1150;-78
2023/07/25 03:16:56;;;;;;;;;;;;;;;22.77;26.35;97533.09;4923111;29;1524;-78
2023/07/25 03:19:22;;;;;;;;;;;;;;;22.53;26.87;97534.81;4959514;28;1914;-78
2023/07/25 03:21:47;;;;;;;;;;;;;;;22.59;27.02;97544.34;4927118;29;1174;-78
2023/07/25 03:24:13;;;;;;;;;;;;;;;22.54;27.04;97536.44;4958159;29;1031;-78
2023/07/25 03:26:38;;;;;;;;;;;;;;;22.32;27.41;97537.19;4926627;29;1190;-78
2023/07/25 03:29:04;;;;;;;;;;;;;;;22.57;26.81;97530.59;4942617;29;1116;-78
2023/07/25 03:31:29;;;;;;;;;;;;;;;22.69;26.62;97530.97;4944491;28;1303;-79
2023/07/25 03:33:55;;;;;;;;;;;;;;;22.84;26.44;97523.50;4929412;28;1238;-78
2023/07/25 03:36:21;;;;;;;;;;;;;;;22.98;26.48;97525.03;4945751;28;920;-78
2023/07/25 03:38:46;;;;;;;;;;;;;;;22.72;26.60;97535.75;4945375;28;783;-78
2023/07/25 03:41:12;;;;;;;;;;;;;;;22.75;26.62;97540.50;4929589;28;1974;-79
2023/07/25 03:43:37;;;;;;;;;;;;;;;22.87;26.55;97531.88;4961487;28;1141;-78
2023/07/25 03:46:03;;;;;;;;;;;;;;;22.67;27.02;97539.16;4962261;28;867;-79
2023/07/25 03:48:29;;;;;;;;;;;;;;;22.95;26.38;97537.28;4965200;28;1552;-78
2023/07/25 03:50:54;;;;;;;;;;;;;;;22.70;26.73;97543.94;4999149;28;804;-78
2023/07/25 03:53:20;;;;;;;;;;;;;;;22.46;27.09;97552.09;4957869;28;1510;-78
2023/07/25 03:55:45;;;;;;;;;;;;;;;22.80;26.75;97557.69;4947166;28;938;-78
2023/07/25 03:58:11;;;;;;;;;;;;;;;22.79;26.56;97552.47;4961910;28;1243;-78
2023/07/25 04:00:36;;;;;;;;;;;;;;;22.85;26.60;97545.75;4979739;28;1910;-78
2023/07/25 04:03:02;;;;;;;;;;;;;;;22.74;26.75;97551.06;4961762;28;725;-78
2023/07/25 04:05:27;;;;;;;;;;;;;;;22.75;26.76;97558.28;4945213;28;1059;-78
2023/07/25 04:07:53;;;;;;;;;;;;;;;22.42;27.42;97554.28;4961873;28;1137;-78
2023/07/25 04:10:18;;;;;;;;;;;;;;;22.61;26.94;97558.84;4961867;28;1093;-78
2023/07/25 04:12:44;;;;;;;;;;;;;;;22.98;26.69;97561.91;4961931;28;791;-78
2023/07/25 04:15:10;;;;;;;;;;;;;;;22.45;27.26;97561.88;4961892;28;742;-79
2023/07/25 04:17:36;;;;;;;;;;;;;;;22.65;27.01;97553.81;4961561;28;1259;-78
2023/07/25 04:20:01;;;;;;;;;;;;;;;22.74;26.83;97545.38;4956834;28;1902;-78
2023/07/25 04:22:27;;;;;;;;;;;;;;;22.71;27.07;97543.47;4957664;29;1142;-78
2023/07/25 04:24:52;;;;;;;;;;;;;;;22.36;27.67;97549.19;4925617;29;1588;-78
2023/07/25 04:27:18;;;;;;;;;;;;;;;22.64;26.76;97546.56;4941195;29;1227;-79
2023/07/25 04:29:43;;;;;;;;;;;;;;;22.48;27.45;97544.72;4941102;29;963;-78
2023/07/25 04:32:09;;;;;;;;;;;;;;;22.69;27.09;97542.31;4957399;29;903;-78
2023/07/25 04:34:34;;;;;;;;;;;;;;;22.73;27.13;97549.44;4940998;29;1129;-78
2023/07/25 04:37:00;;;;;;;;;;;;;;;22.76;27.09;97545.69;4941313;29;1185;-78
2023/07/25 04:39:26;;;;;;;;;;;;;;;22.63;27.48;97550.63;4924888;29;1970;-78
2023/07/25 04:41:51;;;;;;;;;;;;;;;22.60;27.38;97545.91;4941258;29;1199;-78
2023/07/25 04:44:17;;;;;;;;;;;;;;;22.72;27.13;97539.34;4956872;28;1225;-78
2023/07/25 04:46:42;;;;;;;;;;;;;;;22.66;27.35;97544.06;4924456;29;1155;-78
2023/07/25 04:49:11;;;;;;;;;;;;;;;22.80;27.13;97552.03;4924620;29;1110;-78
2023/07/25 04:51:37;;;;;;;;;;;;;;;22.72;27.20;97547.06;4925373;29;1297;-78
2023/07/25 04:54:03;;;;;;;;;;;;;;;22.75;27.30;97546.94;4924887;29;1046;-78
2023/07/25 04:56:28;;;;;;;;;;;;;;;22.79;26.88;97547.59;4956859;28;974;-78
2023/07/25 04:58:54;;;;;;;;;;;;;;;22.70;27.38;97544.72;4940455;29;1987;-78
2023/07/25 05:01:22;;;;;;;;;;;;;;;22.75;27.17;97540.50;4940631;29;1119;-78
2023/07/25 05:03:47;;;;;;;;;;;;;;;22.80;27.15;97537.84;4956402;28;830;-78
2023/07/25 05:06:13;;;;;;;;;;;;;;;22.57;27.39;97535.47;4956638;28;882;-78
2023/07/25 05:08:38;;;;;;;;;;;;;;;22.84;27.08;97527.13;4956026;29;1127;-78
2023/07/25 05:11:04;;;;;;;;;;;;;;;22.65;27.36;97536.81;4940287;28;965;-79
2023/07/25 05:13:29;;;;;;;;;;;;;;;22.71;27.43;97540.63;4940219;29;804;-78
2023/07/25 05:15:55;;;;;;;;;;;;;;;22.75;27.33;97535.59;4924958;29;1222;-78
2023/07/25 05:18:20;;;;;;;;;;;;;;;22.77;27.23;97533.09;4936745;29;1173;-78
2023/07/25 05:20:46;;;;;;;;;;;;;;;22.91;26.77;97526.09;4921388;29;1918;-78
2023/07/25 05:23:11;;;;;;;;;;;;;;;22.66;27.53;97532.72;4920848;29;1245;-78
2023/07/25 05:25:37;;;;;;;;;;;;;;;22.68;27.21;97535.06;4937293;29;893;-78
2023/07/25 05:28:03;;;;;;;;;;;;;;;22.81;27.29;97533.75;4921404;29;1083;-78
2023/07/25 05:30:29;;;;;;;;;;;;;;;22.94;27.09;97541.38;4921525;29;966;-78
2023/07/25 05:32:54;;;;;;;;;;;;;;;22.66;27.59;97538.38;4940228;29;931;-78
2023/07/25 05:35:20;;;;;;;;;;;;;;;23.03;26.74;97527.25;4941168;29;1012;-78
2023/07/25 05:37:45;;;;;;;;;;;;;;;23.03;27.06;97524.41;4925087;29;902;-78
2023/07/25 05:40:11;;;;;;;;;;;;;;;22.70;27.11;97526.91;4910976;29;1907;-78
2023/07/25 05:42:36;;;;;;;;;;;;;;;22.83;27.28;97524.75;4906622;29;863;-78
2023/07/25 05:45:02;;;;;;;;;;;;;;;22.78;27.18;97528.19;4906010;29;992;-77
2023/07/25 05:47:28;;;;;;;;;;;;;;;22.96;27.24;97527.53;4906589;29;797;-78
2023/07/25 05:49:53;;;;;;;;;;;;;;;22.72;27.49;97530.84;4934085;29;964;-78
2023/07/25 05:52:19;;;;;;;;;;;;;;;22.87;27.26;97520.53;4943928;29;895;-78
2023/07/25 05:54:44;;;;;;;;;;;;;;;22.98;27.12;97519.34;4942629;28;933;-78
2023/07/25 05:57:10;;;;;;;;;;;;;;;23.01;27.13;97512.75;4964297;28;790;-78
2023/07/25 05:59:35;;;;;;;;;;;;;;;22.90;27.28;97518.03;4948054;28;1907;-79
2023/07/25 06:02:03;;;;;;;;;;;;;;;22.69;27.85;97514.78;4964593;28;1001;-78
2023/07/25 06:04:29;;;;;;;;;;;;;;;22.84;27.36;97515.78;4963730;28;1059;-78
2023/07/25 06:06:54;;;;;;;;;;;;;;;23.07;26.97;97517.34;4947666;28;983;-78
2023/07/25 06:09:20;;;;;;;;;;;;;;;22.95;27.38;97508.91;4948016;28;853;-78
2023/07/25 06:11:45;;;;;;;;;;;;;;;22.79;27.54;97507.88;4964046;28;764;-78
2023/07/25 06:14:11;;;;;;;;;;;;;;;22.81;27.61;97511.06;4964072;28;857;-78
2023/07/25 06:16:36;;;;;;;;;;;;;;;22.86;27.51;97507.59;4964500;28;788;-78
2023/07/25 06:19:02;;;;;;;;;;;;;;;23.02;27.01;97502.97;4980842;28;1914;-78
2023/07/25 06:21:27;;;;;;;;;;;;;;;22.96;27.28;97504.84;4963884;28;1154;-78
2023/07/25 06:23:53;;;;;;;;;;;;;;;23.18;27.00;97497.03;4963467;28;818;-77
2023/07/25 06:26:18;;;;;;;;;;;;;;;23.07;27.27;97488.19;4963435;28;1291;-78
2023/07/25 06:28:44;;;;;;;;;;;;;;;22.80;27.62;97480.31;4963010;28;1126;-78
2023/07/25 06:31:10;;;;;;;;;;;;;;;22.79;27.67;97490.84;4963787;28;745;-78
2023/07/25 06:33:35;;;;;;;;;;;;;;;22.70;27.96;97488.00;4962899;28;926;-78
2023/07/25 06:36:01;;;;;;;;;;;;;;;23.04;27.43;97489.09;4980677;28;767;-79
2023/07/25 06:38:26;;;;;;;;;;;;;;;22.97;27.32;97472.38;4963034;28;752;-78
2023/07/25 06:40:52;;;;;;;;;;;;;;;22.84;27.76;97480.94;4963270;28;1927;-78
2023/07/25 06:43:17;;;;;;;;;;;;;;;22.79;27.92;97473.84;4957832;28;1272;-77
2023/07/25 06:45:44;;;;;;;;;;;;;;;23.13;27.16;97472.13;4958552;28;1216;-79
2023/07/25 06:48:09;;;;;;;;;;;;;;;23.07;27.08;97479.66;4958016;28;986;-78
2023/07/25 06:50:35;;;;;;;;;;;;;;;22.90;27.38;97481.16;4958407;28;819;-79
2023/07/25 06:53:00;;;;;;;;;;;;;;;23.02;27.24;97474.59;4958589;28;822;-78
2023/07/25 06:55:26;;;;;;;;;;;;;;;23.12;27.20;97481.91;4958829;28;865;-78
2023/07/25 06:57:51;;;;;;;;;;;;;;;23.02;27.39;97477.44;4958441;28;996;-79
2023/07/25 07:00:21;;;;;;;;;;;;;;;22.79;27.80;97475.88;4942343;29;1922;-79
2023/07/25 07:02:46;;;;;;;;;;;;;;;22.61;28.13;97468.09;4943337;29;1188;-79
2023/07/25 07:05:12;;;;;;;;;;;;;;;22.98;27.68;97471.13;4958980;29;874;-79
2023/07/25 07:07:39;;;;;;;;;;;;;;;22.66;28.22;97476.00;4958511;28;929;-79
2023/07/25 07:10:05;;;;;;;;;;;;;;;23.10;27.29;97470.19;4958522;28;1112;-78
2023/07/25 07:12:30;;;;;;;;;;;;;;;22.73;27.90;97467.19;4942652;29;965;-79
2023/07/25 07:14:56;;;;;;;;;;;;;;;23.17;27.37;97464.25;4975371;28;1015;-78
2023/07/25 07:17:21;;;;;;;;;;;;;;;23.13;27.59;97474.94;4963520;28;902;-79
2023/07/25 07:19:47;;;;;;;;;;;;;;;23.03;27.78;97464.81;4962715;28;1922;-79
2023/07/25 07:22:12;;;;;;;;;;;;;;;23.06;27.95;97480.94;4962799;28;1131;-79
2023/07/25 07:24:38;;;;;;;;;;;;;;;22.72;28.21;97476.97;4962758;28;995;-79
2023/07/25 07:27:03;;;;;;;;;;;;;;;22.87;28.22;97471.53;4958470;28;1163;-80
2023/07/25 07:29:29;;;;;;;;;;;;;;;23.08;27.87;97473.50;4958534;28;900;-79
2023/07/25 07:31:54;;;;;;;;;;;;;;;23.19;27.74;97484.44;4958269;28;992;-79
2023/07/25 07:34:20;;;;;;;;;;;;;;;23.22;27.32;97492.03;4942199;29;1223;-78
2023/07/25 07:36:45;;;;;;;;;;;;;;;23.09;27.77;97479.97;4958285;29;948;-79
2023/07/25 07:39:11;;;;;;;;;;;;;;;23.19;27.81;97490.09;4958200;28;1983;-78
2023/07/25 07:41:36;;;;;;;;;;;;;;;22.76;28.09;97474.78;4939158;29;1221;-79
2023/07/25 07:44:02;;;;;;;;;;;;;;;23.14;27.59;97485.03;4939293;29;1209;-78
2023/07/25 07:46:28;;;;;;;;;;;;;;;23.00;27.79;97474.25;4923441;29;1177;-78
2023/07/25 07:48:54;;;;;;;;;;;;;;;22.95;28.06;97472.84;4922959;29;1034;-79
2023/07/25 07:51:19;;;;;;;;;;;;;;;23.03;27.95;97470.50;4939022;29;1031;-78
2023/07/25 07:53:44;;;;;;;;;;;;;;;23.13;27.67;97469.28;4938753;29;946;-79
2023/07/25 07:56:12;;;;;;;;;;;;;;;23.09;27.77;97475.09;4937953;29;1008;-78
2023/07/25 07:58:37;;;;;;;;;;;;;;;23.16;27.94;97474.03;4946577;28;1231;-79
2023/07/25 08:01:03;;;;;;;;;;;;;;;23.04;28.24;97477.75;4941746;29;1915;-78
2023/07/25 08:03:28;;;;;;;;;;;;;;;23.06;28.24;97473.22;4938725;29;1240;-79
2023/07/25 08:05:57;;;;;;;;;;;;;;;23.03;28.26;97473.34;4938891;29;920;-78
2023/07/25 08:08:22;;;;;;;;;;;;;;;23.02;28.13;97469.72;4922315;29;956;-78
2023/07/25 08:10:48;;;;;;;;;;;;;;;23.09;28.04;97474.31;4938864;29;908;-79
2023/07/25 08:13:13;;;;;;;;;;;;;;;22.94;28.56;97473.31;4906627;29;1312;-78
2023/07/25 08:15:44;;;;;;;;;;;;;;;22.63;28.87;97448.56;5095114;27;1267;-79
2023/07/25 08:18:10;;;;;;;;;;;;;;;23.09;28.06;97454.44;5093404;28;871;-78
2023/07/25 08:20:35;;;;;;;;;;;;;;;23.02;28.46;97441.34;5093595;28;1305;-79
2023/07/25 08:23:01;;;;;;;;;;;;;;;23.06;28.11;97424.19;5115549;28;1449;-78
2023/07/25 08:25:26;;;;;;;;;;;;;;;22.89;28.46;97426.47;5133408;28;902;-79
2023/07/25 08:27:52;;;;;;;;;;;;;;;23.17;28.13;97418.84;5116431;28;960;-79
2023/07/25 08:30:17;;;;;;;;;;;;;;;22.99;28.36;97418.78;5133800;28;1149;-79
2023/07/25 08:32:43;;;;;;;;;;;;;;;23.16;28.35;97417.25;5058776;28;1177;-79
2023/07/25 08:35:08;;;;;;;;;;;;;;;22.90;28.71;97410.25;5075251;28;1902;-79
2023/07/25 08:37:34;;;;;;;;;;;;;;;23.17;28.28;97406.69;5035615;28;1131;-79
2023/07/25 08:39:59;;;;;;;;;;;;;;;23.32;27.99;97413.34;5018675;28;1293;-79
2023/07/25 08:42:25;;;;;;;;;;;;;;;23.12;28.23;97417.41;5031556;28;1004;-79
2023/07/25 08:44:52;;;;;;;;;;;;;;;23.14;27.98;97414.09;5015268;28;1224;-78
2023/07/25 08:47:20;;;;;;;;;;;;;;;23.07;28.20;97420.06;4992519;28;934;-78
2023/07/25 08:49:45;;;;;;;;;;;;;;;23.05;28.29;97411.22;4976123;28;1104;-79
2023/07/25 08:52:11;;;;;;;;;;;;;;;23.37;27.92;97410.69;4976402;28;1221;-79
2023/07/25 08:54:37;;;;;;;;;;;;;;;22.98;28.44;97405.88;4946762;28;1988;-79
2023/07/25 08:57:03;;;;;;;;;;;;;;;23.12;28.41;97405.28;4969619;28;1022;-79
2023/07/25 08:59:28;;;;;;;;;;;;;;;23.18;28.22;97414.75;4937344;29;937;-79
2023/07/25 09:01:54;;;;;;;;;;;;;;;23.23;28.34;97416.97;4953475;28;1038;-78
2023/07/25 09:04:19;;;;;;;;;;;;;;;23.14;28.36;97431.91;4968104;28;1289;-79
2023/07/25 09:06:45;;;;;;;;;;;;;;;23.07;28.38;97431.44;4972980;28;1070;-79
2023/07/25 09:09:11;;;;;;;;;;;;;;;22.94;28.97;97413.72;4987456;28;886;-78
2023/07/25 09:11:36;;;;;;;;;;;;;;;23.09;28.43;97414.72;4975996;28;1265;-79
2023/07/25 09:14:02;;;;;;;;;;;;;;;23.20;28.33;97417.88;5006686;28;1914;-78
2023/07/25 09:16:27;;;;;;;;;;;;;;;23.11;28.62;97409.38;5011667;28;1122;-79
2023/07/25 09:18:53;;;;;;;;;;;;;;;23.32;28.45;97413.34;5039314;28;871;-79
2023/07/25 09:21:18;;;;;;;;;;;;;;;23.24;28.14;97412.84;5081197;28;880;-79
2023/07/25 09:23:56;;;;;;;;;;;;;;;23.14;28.78;97414.09;5126151;27;941;-79
2023/07/25 09:26:23;;;;;;;;;;;;;;;23.27;28.36;97411.91;5117073;28;806;-79
2023/07/25 09:28:49;;;;;;;;;;;;;;;23.23;28.27;97411.28;5112546;28;1012;-79
2023/07/25 09:31:14;;;;;;;;;;;;;;;23.14;28.52;97414.09;5078832;28;1179;-79
2023/07/25 09:33:40;;;;;;;;;;;;;;;23.25;28.53;97407.97;5112009;28;1909;-78
2023/07/25 09:36:06;;;;;;;;;;;;;;;23.09;28.59;97392.78;5078600;28;1111;-78
2023/07/25 09:38:33;;;;;;;;;;;;;;;23.36;28.19;97397.75;5078624;28;1073;-79
2023/07/25 09:40:58;;;;;;;;;;;;;;;22.99;28.69;97401.75;5079629;28;927;-79
2023/07/25 09:43:24;;;;;;;;;;;;;;;23.10;28.71;97402.09;5085009;28;822;-79
2023/07/25 09:45:50;;;;;;;;;;;;;;;23.18;28.57;97403.38;5095345;28;1081;-78
2023/07/25 09:48:16;;;;;;;;;;;;;;;23.18;28.53;97408.28;5079178;28;858;-78
2023/07/25 09:50:44;;;;;;;;;;;;;;;23.31;28.50;97412.56;5079780;28;839;-78
2023/07/25 09:53:09;;;;;;;;;;;;;;;23.27;28.39;97411.91;5076991;28;1238;-79
2023/07/25 09:55:35;;;;;;;;;;;;;;;23.32;28.16;97402.78;5094154;28;1906;-79
2023/07/25 09:58:00;;;;;;;;;;;;;;;23.35;28.17;97407.50;5111380;28;789;-79
2023/07/25 10:00:26;;;;;;;;;;;;;;;23.43;28.22;97390.19;5078970;28;864;-79
2023/07/25 10:02:52;;;;;;;;;;;;;;;23.43;28.26;97388.13;5093074;28;1239;-79
2023/07/25 10:05:17;;;;;;;;;;;;;;;23.30;28.26;97388.25;5059746;28;1342;-79
2023/07/25 10:07:42;;;;;;;;;;;;;;;23.43;28.38;97384.50;5059953;28;1050;-79
2023/07/25 10:10:08;;;;;;;;;;;;;;;23.16;28.86;97374.69;5060029;28;792;-79
2023/07/25 10:12:34;;;;;;;;;;;;;;;23.10;28.91;97373.72;5056653;28;984;-79
2023/07/25 10:14:59;;;;;;;;;;;;;;;23.24;28.84;97367.44;5056335;28;1905;-79
2023/07/25 10:17:25;;;;;;;;;;;;;;;23.09;28.71;97367.25;5054941;28;1848;-79
2023/07/25 10:19:51;;;;;;;;;;;;;;;23.07;29.10;97369.00;5019685;28;1214;-79
2023/07/25 10:22:17;;;;;;;;;;;;;;;23.07;28.84;97363.31;5019592;28;1208;-79
2023/07/25 10:24:42;;;;;;;;;;;;;;;23.30;28.61;97359.88;5019690;28;1127;-79
2023/07/25 10:27:09;;;;;;;;;;;;;;;23.21;28.52;97345.69;5019979;28;1181;-79
2023/07/25 10:29:35;;;;;;;;;;;;;;;23.31;28.56;97343.63;5020121;28;1016;-79
2023/07/25 10:32:00;;;;;;;;;;;;;;;23.24;28.72;97347.56;5020214;28;1078;-79
2023/07/25 10:34:36;;;;;;;;;;;;;;;23.23;28.92;97343.16;4960643;28;1902;-80
2023/07/25 10:37:30;;;;;;;;;;;;;;;23.38;28.36;97354.69;4995970;28;1198;-79
2023/07/25 10:40:02;;;;;;;;;;;;;;;23.39;28.29;97356.25;4976884;28;996;-79
2023/07/25 10:42:54;;;;;;;;;;;;;;;23.04;28.75;97358.56;4961133;28;1126;-79
2023/07/25 10:45:28;;;;;;;;;;;;;;;23.31;28.61;97367.16;4938358;29;1014;-79
2023/07/25 10:47:59;;;;;;;;;;;;;;;23.32;28.54;97357.38;4922462;29;917;-79
2023/07/25 10:50:25;;;;;;;;;;;;;;;23.35;28.40;97367.75;4922849;29;1003;-79
2023/07/25 10:52:51;;;;;;;;;;;;;;;23.34;28.50;97368.25;4907147;29;1215;-79
2023/07/25 10:55:16;;;;;;;;;;;;;;;23.28;28.71;97370.91;4938238;29;1979;-79
2023/07/25 10:57:50;;;;;;;;;;;;;;;23.08;28.70;97353.53;4954875;29;1284;-79
2023/07/25 11:00:16;;;;;;;;;;;;;;;23.19;28.87;97359.56;4938321;29;1288;-79
2023/07/25 11:02:43;;;;;;;;;;;;;;;22.95;29.03;97355.72;4954399;29;935;-79
2023/07/25 11:05:15;;;;;;;;;;;;;;;23.06;28.70;97356.06;4953321;28;905;-79
2023/07/25 11:07:46;;;;;;;;;;;;;;;23.25;28.84;97345.50;4979327;28;1287;-79
2023/07/25 11:10:17;;;;;;;;;;;;;;;23.19;28.69;97342.53;4922337;29;1123;-79
2023/07/25 11:12:43;;;;;;;;;;;;;;;23.19;28.70;97336.84;4938264;29;907;-79
2023/07/25 11:15:08;;;;;;;;;;;;;;;23.12;28.77;97340.00;4938230;28;1914;-79
2023/07/25 11:17:34;;;;;;;;;;;;;;;23.55;28.18;97336.06;4976825;28;1322;-80
2023/07/25 11:20:18;;;;;;;;;;;;;;;23.20;28.63;97320.59;5035172;28;1278;-79
2023/07/25 11:22:47;;;;;;;;;;;;;;;23.26;28.69;97330.88;5084106;28;991;-79
2023/07/25 11:25:13;;;;;;;;;;;;;;;23.01;29.00;97325.50;5115707;28;861;-79
2023/07/25 11:27:41;;;;;;;;;;;;;;;23.09;28.75;97316.19;5115730;28;789;-79
2023/07/25 11:30:11;;;;;;;;;;;;;;;23.24;28.54;97310.66;5115381;28;864;-79
2023/07/25 11:32:37;;;;;;;;;;;;;;;23.18;28.77;97312.56;5115513;28;1029;-79
2023/07/25 11:35:02;;;;;;;;;;;;;;;23.02;28.78;97307.19;5099628;27;1913;-79
2023/07/25 11:37:28;;;;;;;;;;;;;;;23.22;28.66;97313.22;5101706;27;879;-79
2023/07/25 11:39:53;;;;;;;;;;;;;;;23.23;28.55;97309.09;5136459;27;846;-79
2023/07/25 11:42:19;;;;;;;;;;;;;;;23.20;28.75;97310.03;5095280;28;962;-79
2023/07/25 11:44:44;;;;;;;;;;;;;;;23.42;28.46;97306.28;5095182;28;985;-79
2023/07/25 11:47:10;;;;;;;;;;;;;;;23.14;28.62;97317.59;5078208;28;813;-79
2023/07/25 11:49:35;;;;;;;;;;;;;;;23.34;28.42;97303.72;5077699;28;837;-79
2023/07/25 11:52:01;;;;;;;;;;;;;;;22.90;29.14;97308.13;5077944;28;950;-79
2023/07/25 11:54:27;;;;;;;;;;;;;;;23.33;28.42;97302.16;5077648;28;1984;-79
2023/07/25 11:56:52;;;;;;;;;;;;;;;23.04;28.80;97307.50;5097700;28;1144;-79
2023/07/25 11:59:18;;;;;;;;;;;;;;;23.33;28.48;97302.16;5071370;28;880;-79
2023/07/25 12:01:43;;;;;;;;;;;;;;;23.25;28.51;97306.56;5038364;28;1309;-79
2023/07/25 12:04:13;;;;;;;;;;;;;;;23.27;28.50;97297.59;5071794;28;849;-79
2023/07/25 12:06:38;;;;;;;;;;;;;;;23.31;28.46;97301.03;5072101;28;769;-79
2023/07/25 12:09:04;;;;;;;;;;;;;;;23.38;28.32;97310.03;5054804;28;1201;-79
2023/07/25 12:11:30;;;;;;;;;;;;;;;23.34;28.51;97303.72;5071244;28;1214;-79
2023/07/25 12:13:56;;;;;;;;;;;;;;;23.22;28.51;97303.91;5067312;28;1914;-79
2023/07/25 12:16:25;;;;;;;;;;;;;;;23.23;28.38;97308.31;5095103;28;1307;-79
2023/07/25 12:18:51;;;;;;;;;;;;;;;23.56;28.28;97299.91;5077878;28;918;-79
2023/07/25 12:21:24;;;;;;;;;;;;;;;23.32;28.52;97289.22;5094813;28;910;-79
2023/07/25 12:23:50;;;;;;;;;;;;;;;23.42;28.45;97298.53;5094731;28;968;-79
2023/07/25 12:26:20;;;;;;;;;;;;;;;23.40;28.40;97295.38;5094741;28;1418;-79
2023/07/25 12:28:45;;;;;;;;;;;;;;;23.22;28.69;97290.50;5094612;28;981;-79
2023/07/25 12:31:11;;;;;;;;;;;;;;;23.21;28.63;97286.09;5094312;28;955;-79
2023/07/25 12:33:37;;;;;;;;;;;;;;;23.08;28.85;97282.59;5093918;28;1991;-79
2023/07/25 12:36:03;;;;;;;;;;;;;;;23.38;28.42;97278.81;5094192;28;876;-79
2023/07/25 12:38:29;;;;;;;;;;;;;;;23.34;28.21;97280.22;5077117;28;1231;-79
2023/07/25 12:40:54;;;;;;;;;;;;;;;23.33;28.30;97285.13;5094247;28;879;-79
2023/07/25 12:43:20;;;;;;;;;;;;;;;23.16;28.61;97275.38;5076849;28;805;-79
2023/07/25 12:45:45;;;;;;;;;;;;;;;23.34;28.25;97275.34;5077524;28;1339;-79
2023/07/25 12:48:11;;;;;;;;;;;;;;;23.27;28.53;97270.00;5056969;28;852;-79
2023/07/25 12:50:39;;;;;;;;;;;;;;;23.36;28.28;97272.84;5056230;28;771;-79
2023/07/25 12:53:04;;;;;;;;;;;;;;;23.23;28.61;97263.69;5087623;28;960;-79